sensor_id;sensor_type;location;lat;lon;timestamp;P1;durP1;ratioP1;P2;durP2;ratioP2
47403;SDS011;33157;51.508;4.288;2023-04-03T00:00:53;7.30;;;3.63;;
47403;SDS011;33157;51.508;4.288;2023-04-03T00:05:56;9.43;;;3.90;;
47403;SDS011;33157;51.508;4.288;2023-04-03T00:10:59;7.85;;;3.95;;
47403;SDS011;33157;51.508;4.288;2023-04-03T00:16:05;7.28;;;3.55;;
47403;SDS011;33157;51.508;4.288;2023-04-03T00:21:10;9.32;;;3.40;;
47403;SDS011;33157;51.508;4.288;2023-04-03T00:26:13;7.40;;;3.78;;
47403;SDS011;33157;51.508;4.288;2023-04-03T00:31:15;5.75;;;3.88;;
47403;SDS011;33157;51.508;4.288;2023-04-03T00:36:22;8.30;;;3.05;;
47403;SDS011;33157;51.508;4.288;2023-04-03T00:41:23;6.70;;;3.17;;
47403;SDS011;33157;51.508;4.288;2023-04-03T00:46:24;5.70;;;2.92;;
47403;SDS011;33157;51.508;4.288;2023-04-03T00:51:28;6.38;;;3.03;;
47403;SDS011;33157;51.508;4.288;2023-04-03T00:56:30;8.23;;;2.88;;
47403;SDS011;33157;51.508;4.288;2023-04-03T01:01:44;4.03;;;2.40;;
47403;SDS011;33157;51.508;4.288;2023-04-03T01:06:51;6.40;;;2.80;;
47403;SDS011;33157;51.508;4.288;2023-04-03T01:17:30;6.85;;;2.53;;
47403;SDS011;33157;51.508;4.288;2023-04-03T01:22:43;4.75;;;2.58;;
47403;SDS011;33157;51.508;4.288;2023-04-03T01:27:49;12.63;;;2.50;;
47403;SDS011;33157;51.508;4.288;2023-04-03T01:32:55;7.05;;;3.25;;
47403;SDS011;33157;51.508;4.288;2023-04-03T01:37:57;3.72;;;2.60;;
47403;SDS011;33157;51.508;4.288;2023-04-03T01:42:58;6.63;;;2.88;;
47403;SDS011;33157;51.508;4.288;2023-04-03T01:47:59;5.23;;;2.60;;
47403;SDS011;33157;51.508;4.288;2023-04-03T01:53:00;10.80;;;5.18;;
47403;SDS011;33157;51.508;4.288;2023-04-03T01:58:01;7.20;;;3.83;;
47403;SDS011;33157;51.508;4.288;2023-04-03T02:08:08;5.15;;;2.30;;
47403;SDS011;33157;51.508;4.288;2023-04-03T02:13:09;5.40;;;2.25;;
47403;SDS011;33157;51.508;4.288;2023-04-03T02:18:10;6.07;;;2.35;;
47403;SDS011;33157;51.508;4.288;2023-04-03T02:23:20;6.68;;;2.30;;
47403;SDS011;33157;51.508;4.288;2023-04-03T02:28:22;5.88;;;2.22;;
47403;SDS011;33157;51.508;4.288;2023-04-03T02:33:30;4.13;;;2.65;;
47403;SDS011;33157;51.508;4.288;2023-04-03T02:38:31;7.88;;;4.18;;
47403;SDS011;33157;51.508;4.288;2023-04-03T02:43:39;5.65;;;2.63;;
47403;SDS011;33157;51.508;4.288;2023-04-03T02:48:40;3.65;;;2.40;;
47403;SDS011;33157;51.508;4.288;2023-04-03T02:53:42;6.70;;;2.70;;
47403;SDS011;33157;51.508;4.288;2023-04-03T02:58:49;5.65;;;2.42;;
47403;SDS011;33157;51.508;4.288;2023-04-03T03:03:50;8.30;;;2.50;;
47403;SDS011;33157;51.508;4.288;2023-04-03T03:08:57;9.65;;;2.40;;
47403;SDS011;33157;51.508;4.288;2023-04-03T03:13:59;5.85;;;2.42;;
47403;SDS011;33157;51.508;4.288;2023-04-03T03:19:08;4.30;;;2.05;;
47403;SDS011;33157;51.508;4.288;2023-04-03T03:24:10;6.45;;;2.83;;
47403;SDS011;33157;51.508;4.288;2023-04-03T03:29:18;4.03;;;2.20;;
47403;SDS011;33157;51.508;4.288;2023-04-03T03:34:20;7.38;;;2.63;;
47403;SDS011;33157;51.508;4.288;2023-04-03T03:39:23;4.93;;;2.10;;
47403;SDS011;33157;51.508;4.288;2023-04-03T03:44:25;5.95;;;2.67;;
47403;SDS011;33157;51.508;4.288;2023-04-03T03:49:28;4.53;;;2.30;;
47403;SDS011;33157;51.508;4.288;2023-04-03T03:54:30;5.72;;;2.83;;
47403;SDS011;33157;51.508;4.288;2023-04-03T03:59:31;4.75;;;2.72;;
47403;SDS011;33157;51.508;4.288;2023-04-03T04:04:32;7.47;;;3.50;;
47403;SDS011;33157;51.508;4.288;2023-04-03T04:09:33;5.57;;;3.15;;
47403;SDS011;33157;51.508;4.288;2023-04-03T04:14:34;8.38;;;3.22;;
47403;SDS011;33157;51.508;4.288;2023-04-03T04:19:50;7.03;;;2.85;;
47403;SDS011;33157;51.508;4.288;2023-04-03T04:24:51;6.05;;;2.90;;
47403;SDS011;33157;51.508;4.288;2023-04-03T04:29:57;6.03;;;3.05;;
47403;SDS011;33157;51.508;4.288;2023-04-03T04:35:01;5.65;;;2.70;;
47403;SDS011;33157;51.508;4.288;2023-04-03T04:40:05;5.70;;;3.10;;
47403;SDS011;33157;51.508;4.288;2023-04-03T04:45:14;4.85;;;2.95;;
47403;SDS011;33157;51.508;4.288;2023-04-03T04:50:15;6.70;;;3.53;;
47403;SDS011;33157;51.508;4.288;2023-04-03T04:55:16;6.88;;;2.95;;
47403;SDS011;33157;51.508;4.288;2023-04-03T05:00:18;4.05;;;2.67;;
47403;SDS011;33157;51.508;4.288;2023-04-03T05:05:20;6.47;;;3.45;;
47403;SDS011;33157;51.508;4.288;2023-04-03T05:10:23;6.78;;;2.92;;
47403;SDS011;33157;51.508;4.288;2023-04-03T05:15:31;6.07;;;2.83;;
47403;SDS011;33157;51.508;4.288;2023-04-03T05:20:34;8.02;;;3.38;;
47403;SDS011;33157;51.508;4.288;2023-04-03T05:25:38;6.15;;;2.90;;
47403;SDS011;33157;51.508;4.288;2023-04-03T05:30:39;9.65;;;3.90;;
47403;SDS011;33157;51.508;4.288;2023-04-03T05:35:41;7.70;;;3.20;;
47403;SDS011;33157;51.508;4.288;2023-04-03T05:40:49;7.18;;;3.28;;
47403;SDS011;33157;51.508;4.288;2023-04-03T05:45:50;6.78;;;3.30;;
47403;SDS011;33157;51.508;4.288;2023-04-03T05:51:01;9.68;;;4.30;;
47403;SDS011;33157;51.508;4.288;2023-04-03T05:56:03;10.15;;;4.72;;
47403;SDS011;33157;51.508;4.288;2023-04-03T06:01:04;11.38;;;5.72;;
47403;SDS011;33157;51.508;4.288;2023-04-03T06:06:06;7.32;;;3.60;;
47403;SDS011;33157;51.508;4.288;2023-04-03T06:11:08;8.90;;;3.85;;
47403;SDS011;33157;51.508;4.288;2023-04-03T06:16:11;8.20;;;3.83;;
47403;SDS011;33157;51.508;4.288;2023-04-03T06:21:14;6.95;;;3.80;;
47403;SDS011;33157;51.508;4.288;2023-04-03T06:26:19;7.28;;;4.10;;
47403;SDS011;33157;51.508;4.288;2023-04-03T06:31:24;7.53;;;3.72;;
47403;SDS011;33157;51.508;4.288;2023-04-03T06:36:25;6.57;;;3.50;;
47403;SDS011;33157;51.508;4.288;2023-04-03T06:41:38;7.23;;;3.40;;
47403;SDS011;33157;51.508;4.288;2023-04-03T06:46:41;9.20;;;3.45;;
47403;SDS011;33157;51.508;4.288;2023-04-03T06:51:48;6.93;;;3.47;;
47403;SDS011;33157;51.508;4.288;2023-04-03T06:56:50;7.40;;;3.17;;
47403;SDS011;33157;51.508;4.288;2023-04-03T07:01:51;5.20;;;2.60;;
47403;SDS011;33157;51.508;4.288;2023-04-03T07:06:53;13.75;;;4.35;;
47403;SDS011;33157;51.508;4.288;2023-04-03T07:11:55;14.65;;;3.35;;
47403;SDS011;33157;51.508;4.288;2023-04-03T07:17:01;9.77;;;2.83;;
47403;SDS011;33157;51.508;4.288;2023-04-03T07:22:03;7.50;;;2.25;;
47403;SDS011;33157;51.508;4.288;2023-04-03T07:27:10;9.60;;;2.95;;
47403;SDS011;33157;51.508;4.288;2023-04-03T07:32:15;9.07;;;2.75;;
47403;SDS011;33157;51.508;4.288;2023-04-03T07:37:23;6.68;;;2.40;;
47403;SDS011;33157;51.508;4.288;2023-04-03T07:42:27;7.80;;;2.25;;
47403;SDS011;33157;51.508;4.288;2023-04-03T07:47:31;6.13;;;2.90;;
47403;SDS011;33157;51.508;4.288;2023-04-03T07:52:55;6.85;;;2.05;;
47403;SDS011;33157;51.508;4.288;2023-04-03T07:57:58;5.53;;;2.25;;
47403;SDS011;33157;51.508;4.288;2023-04-03T08:03:00;7.10;;;2.22;;
47403;SDS011;33157;51.508;4.288;2023-04-03T08:08:01;7.47;;;2.10;;
47403;SDS011;33157;51.508;4.288;2023-04-03T08:13:11;4.50;;;1.55;;
47403;SDS011;33157;51.508;4.288;2023-04-03T08:18:13;5.97;;;2.10;;
47403;SDS011;33157;51.508;4.288;2023-04-03T08:23:16;4.28;;;1.60;;
47403;SDS011;33157;51.508;4.288;2023-04-03T08:28:20;6.63;;;2.40;;
47403;SDS011;33157;51.508;4.288;2023-04-03T08:33:28;4.43;;;1.65;;
47403;SDS011;33157;51.508;4.288;2023-04-03T08:38:30;6.47;;;1.60;;
47403;SDS011;33157;51.508;4.288;2023-04-03T08:43:46;5.50;;;1.63;;
47403;SDS011;33157;51.508;4.288;2023-04-03T08:49:06;4.13;;;1.30;;
47403;SDS011;33157;51.508;4.288;2023-04-03T08:54:26;3.75;;;1.42;;
47403;SDS011;33157;51.508;4.288;2023-04-03T08:59:35;5.30;;;1.17;;
47403;SDS011;33157;51.508;4.288;2023-04-03T09:04:49;5.60;;;1.80;;
47403;SDS011;33157;51.508;4.288;2023-04-03T09:09:51;8.07;;;1.65;;
47403;SDS011;33157;51.508;4.288;2023-04-03T09:20:33;7.13;;;1.20;;
47403;SDS011;33157;51.508;4.288;2023-04-03T09:25:51;3.45;;;1.20;;
47403;SDS011;33157;51.508;4.288;2023-04-03T09:31:00;3.47;;;1.30;;
47403;SDS011;33157;51.508;4.288;2023-04-03T09:36:03;4.00;;;1.42;;
47403;SDS011;33157;51.508;4.288;2023-04-03T09:41:16;2.92;;;1.15;;
47403;SDS011;33157;51.508;4.288;2023-04-03T09:46:25;4.88;;;1.55;;
47403;SDS011;33157;51.508;4.288;2023-04-03T09:51:30;4.10;;;1.00;;
47403;SDS011;33157;51.508;4.288;2023-04-03T09:56:31;7.55;;;1.67;;
47403;SDS011;33157;51.508;4.288;2023-04-03T10:01:40;6.93;;;1.45;;
47403;SDS011;33157;51.508;4.288;2023-04-03T10:06:57;59.70;;;6.07;;
47403;SDS011;33157;51.508;4.288;2023-04-03T10:12:09;4.50;;;1.30;;
47403;SDS011;33157;51.508;4.288;2023-04-03T10:27:55;3.65;;;1.00;;
47403;SDS011;33157;51.508;4.288;2023-04-03T10:55:46;2.45;;;1.08;;
47403;SDS011;33157;51.508;4.288;2023-04-03T11:00:48;5.05;;;0.80;;
47403;SDS011;33157;51.508;4.288;2023-04-03T11:05:56;2.70;;;0.77;;
47403;SDS011;33157;51.508;4.288;2023-04-03T11:11:03;1.23;;;0.70;;
47403;SDS011;33157;51.508;4.288;2023-04-03T11:16:36;3.65;;;1.33;;
47403;SDS011;33157;51.508;4.288;2023-04-03T11:21:43;2.42;;;0.95;;
47403;SDS011;33157;51.508;4.288;2023-04-03T11:26:54;2.72;;;1.00;;
47403;SDS011;33157;51.508;4.288;2023-04-03T11:32:10;2.08;;;0.70;;
47403;SDS011;33157;51.508;4.288;2023-04-03T11:42:39;2.43;;;0.53;;
47403;SDS011;33157;51.508;4.288;2023-04-03T11:47:51;2.25;;;0.70;;
47403;SDS011;33157;51.508;4.288;2023-04-03T11:58:04;1.30;;;0.80;;
47403;SDS011;33157;51.508;4.288;2023-04-03T12:08:38;1.58;;;0.45;;
47403;SDS011;33157;51.508;4.288;2023-04-03T12:23:58;2.47;;;1.02;;
47403;SDS011;33157;51.508;4.288;2023-04-03T12:45:13;4.47;;;0.75;;
47403;SDS011;33157;51.508;4.288;2023-04-03T12:50:20;2.25;;;0.73;;
47403;SDS011;33157;51.508;4.288;2023-04-03T12:55:28;1.75;;;0.70;;
47403;SDS011;33157;51.508;4.288;2023-04-03T13:00:40;1.63;;;0.60;;
47403;SDS011;33157;51.508;4.288;2023-04-03T13:05:41;1.48;;;0.80;;
47403;SDS011;33157;51.508;4.288;2023-04-03T13:10:53;3.10;;;1.30;;
47403;SDS011;33157;51.508;4.288;2023-04-03T13:16:17;1.88;;;0.93;;
47403;SDS011;33157;51.508;4.288;2023-04-03T13:21:25;1.55;;;0.60;;
47403;SDS011;33157;51.508;4.288;2023-04-03T13:26:31;1.70;;;0.63;;
47403;SDS011;33157;51.508;4.288;2023-04-03T13:31:38;2.60;;;1.38;;
47403;SDS011;33157;51.508;4.288;2023-04-03T13:36:41;1.85;;;0.60;;
47403;SDS011;33157;51.508;4.288;2023-04-03T13:41:50;1.73;;;0.60;;
47403;SDS011;33157;51.508;4.288;2023-04-03T13:46:53;1.40;;;0.70;;
47403;SDS011;33157;51.508;4.288;2023-04-03T13:51:56;1.77;;;0.57;;
47403;SDS011;33157;51.508;4.288;2023-04-03T13:57:13;1.52;;;0.90;;
47403;SDS011;33157;51.508;4.288;2023-04-03T14:07:49;1.08;;;0.60;;
47403;SDS011;33157;51.508;4.288;2023-04-03T14:12:52;4.65;;;0.70;;
47403;SDS011;33157;51.508;4.288;2023-04-03T14:17:58;2.70;;;1.00;;
47403;SDS011;33157;51.508;4.288;2023-04-03T14:22:59;2.30;;;0.50;;
47403;SDS011;33157;51.508;4.288;2023-04-03T14:28:21;3.15;;;1.10;;
47403;SDS011;33157;51.508;4.288;2023-04-03T14:38:27;0.85;;;0.60;;
47403;SDS011;33157;51.508;4.288;2023-04-03T14:43:31;7.80;;;2.65;;
47403;SDS011;33157;51.508;4.288;2023-04-03T14:48:44;2.15;;;1.05;;
47403;SDS011;33157;51.508;4.288;2023-04-03T14:53:46;4.63;;;0.90;;
47403;SDS011;33157;51.508;4.288;2023-04-03T14:58:48;2.25;;;0.88;;
47403;SDS011;33157;51.508;4.288;2023-04-03T15:03:51;3.22;;;1.15;;
47403;SDS011;33157;51.508;4.288;2023-04-03T15:08:53;2.25;;;1.00;;
47403;SDS011;33157;51.508;4.288;2023-04-03T15:13:54;2.13;;;1.23;;
47403;SDS011;33157;51.508;4.288;2023-04-03T15:18:55;4.68;;;1.30;;
47403;SDS011;33157;51.508;4.288;2023-04-03T15:24:01;3.30;;;1.20;;
47403;SDS011;33157;51.508;4.288;2023-04-03T15:29:03;1.48;;;0.88;;
47403;SDS011;33157;51.508;4.288;2023-04-03T15:34:04;2.67;;;1.10;;
47403;SDS011;33157;51.508;4.288;2023-04-03T15:39:07;3.03;;;1.03;;
47403;SDS011;33157;51.508;4.288;2023-04-03T15:44:07;3.00;;;1.47;;
47403;SDS011;33157;51.508;4.288;2023-04-03T15:49:09;5.75;;;1.45;;
47403;SDS011;33157;51.508;4.288;2023-04-03T15:54:09;4.75;;;1.20;;
47403;SDS011;33157;51.508;4.288;2023-04-03T15:59:11;1.90;;;0.85;;
47403;SDS011;33157;51.508;4.288;2023-04-03T16:04:12;5.38;;;1.63;;
47403;SDS011;33157;51.508;4.288;2023-04-03T16:09:13;4.72;;;1.15;;
47403;SDS011;33157;51.508;4.288;2023-04-03T16:14:19;3.17;;;1.15;;
47403;SDS011;33157;51.508;4.288;2023-04-03T16:19:20;2.83;;;0.90;;
47403;SDS011;33157;51.508;4.288;2023-04-03T16:24:26;3.90;;;1.20;;
47403;SDS011;33157;51.508;4.288;2023-04-03T16:29:28;4.28;;;1.40;;
47403;SDS011;33157;51.508;4.288;2023-04-03T16:34:29;5.17;;;1.87;;
47403;SDS011;33157;51.508;4.288;2023-04-03T16:39:56;7.72;;;1.20;;
47403;SDS011;33157;51.508;4.288;2023-04-03T16:45:01;5.25;;;1.33;;
47403;SDS011;33157;51.508;4.288;2023-04-03T16:50:04;3.97;;;1.40;;
47403;SDS011;33157;51.508;4.288;2023-04-03T16:55:05;5.33;;;1.37;;
47403;SDS011;33157;51.508;4.288;2023-04-03T17:00:11;5.60;;;1.67;;
47403;SDS011;33157;51.508;4.288;2023-04-03T17:05:13;3.80;;;1.10;;
47403;SDS011;33157;51.508;4.288;2023-04-03T17:10:21;4.93;;;1.27;;
47403;SDS011;33157;51.508;4.288;2023-04-03T17:15:22;4.30;;;1.38;;
47403;SDS011;33157;51.508;4.288;2023-04-03T17:20:25;4.60;;;1.23;;
47403;SDS011;33157;51.508;4.288;2023-04-03T17:25:38;3.33;;;1.40;;
47403;SDS011;33157;51.508;4.288;2023-04-03T17:30:39;6.68;;;1.45;;
47403;SDS011;33157;51.508;4.288;2023-04-03T17:35:46;7.50;;;1.70;;
47403;SDS011;33157;51.508;4.288;2023-04-03T17:40:47;2.85;;;1.00;;
47403;SDS011;33157;51.508;4.288;2023-04-03T17:45:53;4.43;;;1.67;;
47403;SDS011;33157;51.508;4.288;2023-04-03T17:50:55;4.28;;;1.38;;
47403;SDS011;33157;51.508;4.288;2023-04-03T17:55:56;5.40;;;1.60;;
47403;SDS011;33157;51.508;4.288;2023-04-03T18:00:57;2.80;;;1.38;;
47403;SDS011;33157;51.508;4.288;2023-04-03T18:06:01;5.45;;;1.60;;
47403;SDS011;33157;51.508;4.288;2023-04-03T18:11:06;6.82;;;2.47;;
47403;SDS011;33157;51.508;4.288;2023-04-03T18:16:08;5.22;;;1.75;;
47403;SDS011;33157;51.508;4.288;2023-04-03T18:21:13;3.03;;;1.35;;
47403;SDS011;33157;51.508;4.288;2023-04-03T18:26:14;3.42;;;1.48;;
47403;SDS011;33157;51.508;4.288;2023-04-03T18:31:21;3.60;;;1.52;;
47403;SDS011;33157;51.508;4.288;2023-04-03T18:36:23;7.22;;;2.00;;
47403;SDS011;33157;51.508;4.288;2023-04-03T18:41:27;4.38;;;1.38;;
47403;SDS011;33157;51.508;4.288;2023-04-03T18:46:31;5.75;;;1.35;;
47403;SDS011;33157;51.508;4.288;2023-04-03T18:51:32;5.15;;;1.63;;
47403;SDS011;33157;51.508;4.288;2023-04-03T18:56:39;4.38;;;1.35;;
47403;SDS011;33157;51.508;4.288;2023-04-03T19:01:40;4.72;;;1.50;;
47403;SDS011;33157;51.508;4.288;2023-04-03T19:06:46;3.45;;;1.35;;
47403;SDS011;33157;51.508;4.288;2023-04-03T19:11:47;5.93;;;1.80;;
47403;SDS011;33157;51.508;4.288;2023-04-03T19:16:51;2.83;;;1.40;;
47403;SDS011;33157;51.508;4.288;2023-04-03T19:21:52;4.47;;;1.52;;
47403;SDS011;33157;51.508;4.288;2023-04-03T19:26:52;5.22;;;2.33;;
47403;SDS011;33157;51.508;4.288;2023-04-03T19:31:59;5.47;;;1.90;;
47403;SDS011;33157;51.508;4.288;2023-04-03T19:37:02;4.38;;;1.60;;
47403;SDS011;33157;51.508;4.288;2023-04-03T19:47:13;6.97;;;2.25;;
47403;SDS011;33157;51.508;4.288;2023-04-03T19:52:15;4.70;;;1.70;;
47403;SDS011;33157;51.508;4.288;2023-04-03T19:57:18;4.80;;;1.58;;
47403;SDS011;33157;51.508;4.288;2023-04-03T20:02:24;6.22;;;1.88;;
47403;SDS011;33157;51.508;4.288;2023-04-03T20:07:31;5.93;;;2.13;;
47403;SDS011;33157;51.508;4.288;2023-04-03T20:12:32;6.43;;;2.30;;
47403;SDS011;33157;51.508;4.288;2023-04-03T20:17:45;8.98;;;1.90;;
47403;SDS011;33157;51.508;4.288;2023-04-03T20:22:59;5.75;;;1.77;;
47403;SDS011;33157;51.508;4.288;2023-04-03T20:34:14;8.13;;;2.15;;
47403;SDS011;33157;51.508;4.288;2023-04-03T20:39:21;9.48;;;2.25;;
47403;SDS011;33157;51.508;4.288;2023-04-03T20:44:24;5.53;;;1.80;;
47403;SDS011;33157;51.508;4.288;2023-04-03T20:49:27;12.18;;;2.15;;
47403;SDS011;33157;51.508;4.288;2023-04-03T21:00:22;4.72;;;2.00;;
47403;SDS011;33157;51.508;4.288;2023-04-03T21:05:31;5.40;;;2.47;;
47403;SDS011;33157;51.508;4.288;2023-04-03T21:21:23;5.32;;;2.03;;
47403;SDS011;33157;51.508;4.288;2023-04-03T21:26:28;3.90;;;1.85;;
47403;SDS011;33157;51.508;4.288;2023-04-03T21:31:47;5.55;;;2.40;;
47403;SDS011;33157;51.508;4.288;2023-04-03T21:37:07;6.45;;;2.00;;
47403;SDS011;33157;51.508;4.288;2023-04-03T21:42:14;6.82;;;2.42;;
47403;SDS011;33157;51.508;4.288;2023-04-03T21:47:18;11.40;;;2.30;;
47403;SDS011;33157;51.508;4.288;2023-04-03T21:52:43;5.70;;;1.50;;
47403;SDS011;33157;51.508;4.288;2023-04-03T21:57:55;6.72;;;1.60;;
47403;SDS011;33157;51.508;4.288;2023-04-03T22:08:04;9.13;;;2.25;;
47403;SDS011;33157;51.508;4.288;2023-04-03T22:13:06;7.38;;;2.00;;
47403;SDS011;33157;51.508;4.288;2023-04-03T22:18:10;6.03;;;2.42;;
47403;SDS011;33157;51.508;4.288;2023-04-03T22:23:20;5.25;;;1.73;;
47403;SDS011;33157;51.508;4.288;2023-04-03T22:28:28;4.20;;;1.48;;
47403;SDS011;33157;51.508;4.288;2023-04-03T22:33:37;4.68;;;1.70;;
47403;SDS011;33157;51.508;4.288;2023-04-03T22:38:40;7.13;;;3.05;;
47403;SDS011;33157;51.508;4.288;2023-04-03T22:43:50;5.55;;;1.83;;
47403;SDS011;33157;51.508;4.288;2023-04-03T22:48:51;5.22;;;1.55;;
47403;SDS011;33157;51.508;4.288;2023-04-03T22:53:54;2.50;;;1.70;;
47403;SDS011;33157;51.508;4.288;2023-04-03T22:58:55;6.45;;;1.60;;
47403;SDS011;33157;51.508;4.288;2023-04-03T23:03:56;7.20;;;1.70;;
47403;SDS011;33157;51.508;4.288;2023-04-03T23:08:59;6.75;;;1.50;;
47403;SDS011;33157;51.508;4.288;2023-04-03T23:14:04;5.75;;;1.90;;
47403;SDS011;33157;51.508;4.288;2023-04-03T23:19:06;5.32;;;1.90;;
47403;SDS011;33157;51.508;4.288;2023-04-03T23:24:08;7.25;;;2.10;;
47403;SDS011;33157;51.508;4.288;2023-04-03T23:29:15;3.97;;;1.70;;
47403;SDS011;33157;51.508;4.288;2023-04-03T23:34:18;5.22;;;1.65;;
47403;SDS011;33157;51.508;4.288;2023-04-03T23:39:20;5.82;;;1.80;;
47403;SDS011;33157;51.508;4.288;2023-04-03T23:44:26;4.20;;;1.67;;
47403;SDS011;33157;51.508;4.288;2023-04-03T23:49:27;5.28;;;1.98;;
47403;SDS011;33157;51.508;4.288;2023-04-03T23:54:34;4.75;;;1.70;;
47403;SDS011;33157;51.508;4.288;2023-04-03T23:59:35;12.40;;;2.53;;
